createdAt,value
2022-11-01T00:01:26.627Z,16.17
2022-11-01T00:03:53.126Z,10.40
2022-11-01T00:06:19.384Z,11.35
2022-11-01T00:08:45.742Z,10.50
2022-11-01T00:11:13.416Z,14.38
2022-11-01T00:13:39.912Z,17.45
2022-11-01T00:16:06.573Z,15.15
2022-11-01T00:18:32.985Z,13.23
2022-11-01T00:20:59.398Z,13.68
2022-11-01T00:23:25.682Z,16.23
2022-11-01T00:25:51.965Z,17.95
2022-11-01T00:28:18.433Z,14.35
2022-11-01T00:30:45.745Z,17.02
2022-11-01T00:33:12.042Z,15.38
2022-11-01T00:35:38.390Z,15.85
2022-11-01T00:38:05.126Z,15.70
2022-11-01T00:40:31.781Z,15.85
2022-11-01T00:42:58.154Z,12.35
2022-11-01T00:45:24.433Z,11.50
2022-11-01T00:47:50.725Z,12.23
2022-11-01T00:50:17.014Z,18.02
2022-11-01T00:52:43.337Z,14.88
2022-11-01T00:55:09.660Z,13.45
2022-11-01T00:57:36.232Z,14.60
2022-11-01T01:00:02.992Z,14.48
2022-11-01T01:02:29.474Z,16.38
2022-11-01T01:04:55.765Z,12.40
2022-11-01T01:07:22.050Z,13.85
2022-11-01T01:09:48.333Z,13.00
2022-11-01T01:12:14.681Z,13.18
2022-11-01T01:14:40.938Z,14.80
2022-11-01T01:17:07.623Z,18.50
2022-11-01T01:19:34.174Z,18.17
2022-11-01T01:22:01.082Z,10.75
2022-11-01T01:24:27.749Z,11.85
2022-11-01T01:26:54.318Z,9.43
2022-11-01T01:29:20.592Z,10.18
2022-11-01T01:31:46.957Z,15.57
2022-11-01T01:34:13.226Z,13.30
2022-11-01T01:36:39.497Z,12.07
2022-11-01T01:39:05.798Z,16.52
2022-11-01T01:41:50.971Z,11.23
2022-11-01T01:44:37.238Z,11.23
2022-11-01T01:47:03.514Z,12.73
2022-11-01T01:49:29.841Z,10.93
2022-11-01T01:51:56.253Z,16.10
2022-11-01T01:54:22.543Z,11.45
2022-11-01T01:56:49.268Z,14.60
2022-11-01T01:59:15.616Z,12.82
2022-11-01T02:01:42.117Z,11.02
2022-11-01T02:04:11.586Z,12.43
2022-11-01T02:06:39.362Z,9.63
2022-11-01T02:09:06.837Z,9.48
2022-11-01T02:11:33.196Z,17.00
2022-11-01T02:13:59.894Z,10.10
2022-11-01T02:16:36.556Z,10.13
2022-11-01T02:19:11.880Z,13.40
2022-11-01T02:21:44.552Z,10.02
2022-11-01T02:24:19.980Z,12.07
2022-11-01T02:26:56.306Z,12.07
2022-11-01T02:29:22.762Z,12.77
2022-11-01T02:32:09.392Z,13.57
2022-11-01T02:34:40.377Z,14.52
2022-11-01T02:37:11.354Z,11.35
2022-11-01T02:42:11.658Z,14.15
2022-11-01T02:44:40.339Z,8.45
2022-11-01T02:47:07.052Z,8.73
2022-11-01T02:49:47.128Z,11.55
2022-11-01T02:52:14.873Z,8.57
2022-11-01T02:54:45.406Z,9.25
2022-11-01T02:57:18.050Z,11.05
2022-11-01T02:59:45.565Z,11.02
2022-11-01T03:02:39.303Z,15.80
2022-11-01T03:05:19.106Z,8.43
2022-11-01T03:07:47.504Z,10.98
2022-11-01T03:10:14.225Z,13.50
2022-11-01T03:12:46.266Z,10.63
2022-11-01T03:15:20.962Z,8.60
2022-11-01T03:17:50.847Z,10.00
2022-11-01T03:20:20.281Z,8.38
2022-11-01T03:22:54.494Z,7.68
2022-11-01T03:25:40.073Z,7.20
2022-11-01T03:28:09.659Z,9.85
2022-11-01T03:30:37.080Z,4.80
2022-11-01T03:33:04.602Z,10.95
2022-11-01T03:35:35.020Z,9.10
2022-11-01T03:38:04.487Z,7.73
2022-11-01T03:40:32.551Z,4.03
2022-11-01T03:43:01.281Z,4.47
2022-11-01T03:45:28.102Z,5.72
2022-11-01T03:47:54.409Z,8.32
2022-11-01T03:50:25.284Z,5.35
2022-11-01T03:55:18.548Z,2.78
2022-11-01T03:57:47.844Z,7.35
2022-11-01T04:00:19.073Z,5.32
2022-11-01T04:02:45.477Z,4.43
2022-11-01T04:05:12.082Z,3.55
2022-11-01T04:07:38.899Z,6.18
2022-11-01T04:10:05.894Z,6.35
2022-11-01T04:12:32.487Z,2.97
2022-11-01T04:15:17.239Z,5.43
2022-11-01T04:18:02.216Z,3.17
2022-11-01T04:20:38.330Z,2.78
2022-11-01T04:23:05.974Z,1.70
2022-11-01T04:25:33.041Z,3.30
2022-11-01T04:27:59.950Z,4.00
2022-11-01T04:30:27.205Z,2.03
2022-11-01T04:32:53.483Z,2.38
2022-11-01T04:35:20.125Z,3.00
2022-11-01T04:37:46.714Z,6.57
2022-11-01T04:40:13.902Z,2.47
2022-11-01T04:42:40.573Z,1.38
2022-11-01T04:45:08.327Z,3.45
2022-11-01T04:47:34.919Z,8.23
2022-11-01T04:50:01.528Z,2.22
2022-11-01T04:52:28.154Z,5.55
2022-11-01T04:54:55.320Z,4.43
2022-11-01T04:57:24.727Z,6.28
2022-11-01T04:59:55.340Z,5.70
2022-11-01T05:02:22.214Z,4.28
2022-11-01T05:04:48.828Z,4.70
2022-11-01T05:07:15.831Z,4.47
2022-11-01T05:09:43.136Z,4.10
2022-11-01T05:12:09.504Z,5.97
2022-11-01T05:14:35.780Z,6.80
2022-11-01T05:17:02.084Z,9.75
2022-11-01T05:19:28.369Z,3.83
2022-11-01T05:21:54.733Z,6.05
2022-11-01T05:24:21.059Z,4.32
2022-11-01T05:26:49.230Z,5.20
2022-11-01T05:29:24.677Z,4.57
2022-11-01T05:31:58.646Z,5.50
2022-11-01T05:34:24.976Z,3.60
2022-11-01T05:36:51.255Z,7.22
2022-11-01T05:39:17.532Z,5.22
2022-11-01T05:41:44.222Z,5.53
2022-11-01T05:44:10.573Z,7.10
2022-11-01T05:46:36.851Z,7.78
2022-11-01T05:49:03.185Z,4.93
2022-11-01T05:51:29.515Z,7.50
2022-11-01T05:53:55.843Z,8.85
2022-11-01T05:56:22.113Z,14.02
2022-11-01T05:58:48.873Z,7.03
2022-11-01T06:01:17.723Z,7.78
2022-11-01T06:03:44.082Z,8.90
2022-11-01T06:06:11.609Z,7.18
2022-11-01T06:08:37.917Z,11.32
2022-11-01T06:11:05.497Z,6.72
2022-11-01T06:13:32.307Z,8.00
2022-11-01T06:16:02.830Z,5.18
2022-11-01T06:18:31.457Z,7.63
2022-11-01T06:20:58.027Z,5.95
2022-11-01T06:23:24.308Z,8.43
2022-11-01T06:25:50.753Z,10.20
2022-11-01T06:28:17.038Z,6.40
2022-11-01T06:30:44.036Z,10.70
2022-11-01T06:33:10.907Z,6.97
2022-11-01T06:35:37.639Z,13.65
2022-11-01T06:38:06.700Z,7.38
2022-11-01T06:40:36.731Z,8.73
2022-11-01T06:43:04.842Z,17.53
2022-11-01T06:45:32.214Z,8.70
2022-11-01T06:47:59.085Z,10.75
2022-11-01T06:50:25.474Z,8.52
2022-11-01T06:52:52.708Z,9.57
2022-11-01T06:55:18.987Z,20.27
2022-11-01T06:57:53.661Z,8.00
2022-11-01T07:00:20.090Z,10.52
2022-11-01T07:02:46.455Z,9.15
2022-11-01T07:05:12.830Z,7.28
2022-11-01T07:07:39.113Z,10.30
2022-11-01T07:10:05.593Z,8.32
2022-11-01T07:12:31.914Z,7.88
2022-11-01T07:14:58.200Z,10.35
2022-11-01T07:17:24.476Z,12.40
2022-11-01T07:19:52.052Z,14.32
2022-11-01T07:22:18.646Z,9.57
2022-11-01T07:24:45.001Z,9.98
2022-11-01T07:27:12.663Z,15.07
2022-11-01T07:29:41.621Z,16.25
2022-11-01T07:32:08.102Z,10.07
2022-11-01T07:34:34.479Z,15.23
2022-11-01T07:37:00.742Z,13.75
2022-11-01T07:39:27.025Z,13.07
2022-11-01T07:41:54.394Z,13.55
2022-11-01T07:44:20.695Z,9.68
2022-11-01T07:46:47.225Z,6.20
2022-11-01T07:49:13.590Z,8.45
2022-11-01T07:51:39.889Z,11.27
2022-11-01T07:54:06.254Z,17.85
2022-11-01T07:56:32.614Z,13.60
2022-11-01T07:58:58.890Z,15.02
2022-11-01T08:01:25.292Z,18.13
2022-11-01T08:03:51.991Z,12.82
2022-11-01T08:06:18.365Z,8.05
2022-11-01T08:08:45.937Z,11.45
2022-11-01T08:11:12.375Z,14.05
2022-11-01T08:13:38.711Z,13.43
2022-11-01T08:16:05.537Z,11.23
2022-11-01T08:18:32.045Z,12.23
2022-11-01T08:20:59.524Z,12.65
2022-11-01T08:23:25.875Z,13.93
2022-11-01T08:25:52.213Z,11.20
2022-11-01T08:28:20.014Z,14.60
2022-11-01T08:30:47.692Z,13.35
2022-11-01T08:33:13.974Z,8.77
2022-11-01T08:35:41.177Z,10.48
2022-11-01T08:38:09.746Z,11.82
2022-11-01T08:40:36.178Z,13.90
2022-11-01T08:43:02.958Z,13.98
2022-11-01T08:45:29.543Z,14.93
2022-11-01T08:47:59.667Z,16.02
2022-11-01T08:50:26.602Z,15.47
2022-11-01T08:52:52.918Z,12.30
2022-11-01T08:55:19.298Z,19.50
2022-11-01T08:57:45.591Z,15.05
2022-11-01T09:00:12.234Z,18.65
2022-11-01T09:02:38.729Z,16.77
2022-11-01T09:05:06.927Z,13.35
2022-11-01T09:07:34.325Z,11.63
2022-11-01T09:10:00.860Z,17.42
2022-11-01T09:12:27.520Z,16.88
2022-11-01T09:14:53.945Z,18.80
2022-11-01T09:17:20.270Z,15.38
2022-11-01T09:19:46.584Z,10.50
2022-11-01T09:22:12.933Z,13.55
2022-11-01T09:24:39.333Z,13.30
2022-11-01T09:27:06.890Z,16.20
2022-11-01T09:32:06.594Z,14.45
2022-11-01T09:34:33.124Z,15.13
2022-11-01T09:36:59.503Z,11.88
2022-11-01T09:39:25.778Z,14.35
2022-11-01T09:41:53.259Z,12.20
2022-11-01T09:44:23.261Z,12.88
2022-11-01T09:46:51.396Z,11.30
2022-11-01T09:49:23.086Z,10.52
2022-11-01T09:51:49.587Z,15.68
2022-11-01T09:54:16.250Z,13.55
2022-11-01T09:56:57.774Z,15.25
2022-11-01T09:59:36.878Z,15.38
2022-11-01T10:02:09.878Z,15.48
2022-11-01T10:04:44.507Z,15.27
2022-11-01T10:07:29.597Z,16.80
2022-11-01T10:10:03.794Z,11.43
2022-11-01T10:12:38.802Z,11.80
2022-11-01T10:15:14.241Z,23.90
2022-11-01T10:17:47.016Z,12.98
2022-11-01T10:20:16.321Z,12.13
2022-11-01T10:22:44.959Z,12.60
2022-11-01T10:25:14.298Z,18.45
2022-11-01T10:27:43.599Z,12.40
2022-11-01T10:30:15.481Z,9.50
2022-11-01T10:32:41.972Z,16.20
2022-11-01T10:35:16.057Z,16.55
2022-11-01T10:37:57.344Z,12.15
2022-11-01T10:40:40.720Z,12.88
2022-11-01T10:43:18.617Z,12.98
2022-11-01T10:45:47.711Z,11.45
2022-11-01T10:48:21.885Z,7.38
2022-11-01T10:50:48.372Z,21.55
2022-11-01T10:53:17.034Z,13.85
2022-11-01T10:55:45.868Z,10.80
2022-11-01T10:58:30.908Z,10.20
2022-11-01T11:00:57.420Z,10.95
2022-11-01T11:03:25.600Z,14.90
2022-11-01T11:05:52.182Z,12.25
2022-11-01T11:08:20.670Z,11.38
2022-11-01T11:10:47.513Z,13.45
2022-11-01T11:13:15.315Z,9.55
2022-11-01T11:15:47.591Z,10.95
2022-11-01T11:18:17.689Z,10.05
2022-11-01T11:20:44.174Z,10.93
2022-11-01T11:23:11.396Z,8.95
2022-11-01T11:25:37.730Z,9.60
2022-11-01T11:28:05.335Z,10.00
2022-11-01T11:30:33.235Z,12.77
2022-11-01T11:33:01.831Z,10.52
2022-11-01T11:35:31.277Z,9.95
2022-11-01T11:37:57.647Z,13.70
2022-11-01T11:40:25.766Z,14.50
2022-11-01T11:42:53.431Z,11.43
2022-11-01T11:45:24.614Z,13.75
2022-11-01T11:47:51.417Z,10.95
2022-11-01T11:50:21.045Z,11.93
2022-11-01T11:52:49.077Z,9.18
2022-11-01T11:55:32.073Z,9.35
2022-11-01T11:57:58.494Z,13.38
2022-11-01T12:00:26.982Z,13.43
2022-11-01T12:02:53.473Z,7.45
2022-11-01T12:05:22.501Z,11.32
2022-11-01T12:07:53.513Z,10.40
2022-11-01T12:10:32.141Z,11.95
2022-11-01T12:12:58.866Z,11.77
2022-11-01T12:15:40.047Z,8.10
2022-11-01T12:18:15.880Z,10.35
2022-11-01T12:20:43.816Z,10.73
2022-11-01T12:23:20.815Z,9.63
2022-11-01T12:25:49.286Z,9.45
2022-11-01T12:28:34.266Z,9.15
2022-11-01T12:31:04.774Z,12.40
2022-11-01T12:33:33.445Z,9.98
2022-11-01T12:36:00.155Z,6.97
2022-11-01T12:38:32.433Z,7.63
2022-11-01T12:41:01.180Z,9.02
2022-11-01T12:43:37.760Z,8.63
2022-11-01T12:46:10.301Z,10.93
2022-11-01T12:48:40.119Z,11.45
2022-11-01T12:51:09.998Z,9.52
2022-11-01T12:53:42.563Z,8.65
2022-11-01T12:56:08.971Z,9.07
2022-11-01T12:58:36.393Z,6.75
2022-11-01T13:01:11.747Z,11.95
2022-11-01T13:03:44.353Z,6.78
2022-11-01T13:06:37.075Z,8.35
2022-11-01T13:09:14.447Z,5.53
2022-11-01T13:11:50.444Z,4.57
2022-11-01T13:14:19.808Z,9.85
2022-11-01T13:16:48.818Z,5.47
2022-11-01T13:19:15.395Z,5.75
2022-11-01T13:21:49.515Z,4.15
2022-11-01T13:24:24.914Z,6.10
2022-11-01T13:27:04.812Z,7.80
2022-11-01T13:29:34.250Z,5.28
2022-11-01T13:32:06.215Z,6.80
2022-11-01T13:34:35.805Z,8.43
2022-11-01T13:37:03.046Z,5.95
2022-11-01T13:39:37.686Z,5.90
2022-11-01T13:42:05.031Z,5.47
2022-11-01T13:44:33.699Z,8.68
2022-11-01T13:47:08.160Z,9.30
2022-11-01T13:49:40.675Z,4.05
2022-11-01T13:52:19.240Z,5.65
2022-11-01T13:54:51.209Z,7.40
2022-11-01T13:57:18.654Z,10.98
2022-11-01T13:59:55.304Z,5.45
2022-11-01T14:02:27.688Z,3.97
2022-11-01T14:04:59.887Z,6.45
2022-11-01T14:07:33.196Z,7.47
2022-11-01T14:09:59.662Z,7.00
2022-11-01T14:12:34.372Z,5.70
2022-11-01T14:15:16.203Z,6.88
2022-11-01T14:18:03.640Z,8.13
2022-11-01T14:20:33.220Z,11.73
2022-11-01T14:23:19.518Z,9.10
2022-11-01T14:25:46.280Z,6.82
2022-11-01T14:28:18.724Z,7.07
2022-11-01T14:30:47.063Z,5.22
2022-11-01T14:33:14.664Z,5.80
2022-11-01T14:35:43.646Z,8.73
2022-11-01T14:38:14.740Z,9.35
2022-11-01T14:40:50.294Z,3.35
2022-11-01T14:43:19.026Z,6.32
2022-11-01T14:45:47.103Z,10.63
2022-11-01T14:48:17.811Z,6.60
2022-11-01T14:50:44.172Z,5.10
2022-11-01T14:53:28.238Z,10.20
2022-11-01T14:56:06.572Z,11.25
2022-11-01T14:58:32.903Z,5.28
2022-11-01T15:01:04.828Z,6.05
2022-11-01T15:03:33.120Z,8.07
2022-11-01T15:05:59.533Z,12.95
2022-11-01T15:08:29.090Z,10.13
2022-11-01T15:10:57.327Z,10.50
2022-11-01T15:13:24.028Z,7.63
2022-11-01T15:16:10.653Z,6.95
2022-11-01T15:18:39.352Z,4.70
2022-11-01T15:21:06.824Z,9.00
2022-11-01T15:23:34.669Z,10.80
2022-11-01T15:26:04.724Z,9.88
2022-11-01T15:28:35.383Z,7.83
2022-11-01T15:31:02.707Z,9.60
2022-11-01T15:33:31.472Z,7.88
2022-11-01T15:36:08.584Z,7.53
2022-11-01T15:38:54.201Z,9.00
2022-11-01T15:41:21.906Z,5.00
2022-11-01T15:43:55.194Z,14.52
2022-11-01T15:46:25.672Z,8.57
2022-11-01T15:48:53.104Z,7.93
2022-11-01T15:51:22.867Z,5.00
2022-11-01T15:53:52.197Z,11.15
2022-11-01T15:56:21.827Z,7.38
2022-11-01T15:58:51.083Z,9.35
2022-11-01T16:01:19.997Z,10.25
2022-11-01T16:03:52.325Z,12.68
2022-11-01T16:06:22.578Z,7.07
2022-11-01T16:08:51.058Z,13.20
2022-11-01T16:11:20.896Z,7.10
2022-11-01T16:13:48.926Z,10.38
2022-11-01T16:16:15.249Z,11.05
2022-11-01T16:18:43.749Z,9.52
2022-11-01T16:21:19.286Z,9.82
2022-11-01T16:23:50.753Z,11.98
2022-11-01T16:26:17.040Z,7.88
2022-11-01T16:28:46.924Z,5.38
2022-11-01T16:31:20.428Z,6.23
2022-11-01T16:33:47.365Z,8.07
2022-11-01T16:36:19.980Z,9.98
2022-11-01T16:38:47.135Z,6.93
2022-11-01T16:41:18.838Z,10.25
2022-11-01T16:43:45.596Z,6.80
2022-11-01T16:46:12.305Z,8.20
2022-11-01T16:48:50.134Z,7.38
2022-11-01T16:51:16.535Z,9.65
2022-11-01T16:53:44.333Z,6.85
2022-11-01T16:56:36.193Z,10.32
2022-11-01T16:59:07.471Z,7.93
2022-11-01T17:01:35.790Z,6.13
2022-11-01T17:04:03.448Z,6.53
2022-11-01T17:06:32.430Z,7.00
2022-11-01T17:09:02.470Z,9.82
2022-11-01T17:11:28.867Z,7.18
2022-11-01T17:13:55.185Z,10.77
2022-11-01T17:16:23.218Z,9.65
2022-11-01T17:18:50.837Z,7.50
2022-11-01T17:21:17.182Z,6.00
2022-11-01T17:23:43.464Z,8.55
2022-11-01T17:26:10.437Z,10.68
2022-11-01T17:28:36.933Z,7.88
2022-11-01T17:31:03.624Z,12.38
2022-11-01T17:33:30.364Z,8.45
2022-11-01T17:35:57.812Z,7.35
2022-11-01T17:38:30.078Z,10.07
2022-11-01T17:40:56.833Z,8.52
2022-11-01T17:43:23.265Z,9.80
2022-11-01T17:45:50.145Z,11.15
2022-11-01T17:48:17.436Z,14.00
2022-11-01T17:50:43.778Z,8.02
2022-11-01T17:53:14.214Z,8.82
2022-11-01T17:55:41.159Z,9.85
2022-11-01T17:58:08.112Z,6.78
2022-11-01T18:00:34.999Z,8.82
2022-11-01T18:03:01.626Z,6.70
2022-11-01T18:05:27.979Z,8.40
2022-11-01T18:07:54.531Z,11.63
2022-11-01T18:10:20.811Z,15.15
2022-11-01T18:12:53.183Z,10.38
2022-11-01T18:15:25.580Z,9.20
2022-11-01T18:18:03.648Z,8.52
2022-11-01T18:20:34.409Z,11.80
2022-11-01T18:23:02.165Z,12.75
2022-11-01T18:25:45.786Z,11.48
2022-11-01T18:28:13.750Z,10.00
2022-11-01T18:30:41.764Z,7.45
2022-11-01T18:33:11.086Z,10.68
2022-11-01T18:36:03.281Z,9.77
2022-11-01T18:38:36.974Z,13.93
2022-11-01T18:41:05.464Z,9.10
2022-11-01T18:43:35.069Z,9.47
2022-11-01T18:46:28.920Z,11.27
2022-11-01T18:48:59.359Z,9.05
2022-11-01T18:51:30.141Z,6.05
2022-11-01T18:54:03.197Z,7.35
2022-11-01T18:56:29.537Z,10.20
2022-11-01T18:58:56.164Z,10.38
2022-11-01T19:01:31.200Z,8.35
2022-11-01T19:04:02.579Z,9.05
2022-11-01T19:06:31.263Z,15.73
2022-11-01T19:08:58.698Z,11.70
2022-11-01T19:11:26.119Z,12.95
2022-11-01T19:13:52.964Z,17.00
2022-11-01T19:16:19.952Z,8.68
2022-11-01T19:18:48.141Z,11.05
2022-11-01T19:21:16.018Z,11.43
2022-11-01T19:23:45.141Z,11.77
2022-11-01T19:26:18.389Z,8.52
2022-11-01T19:28:44.928Z,8.32
2022-11-01T19:31:23.429Z,11.98
2022-11-01T19:33:55.519Z,12.68
2022-11-01T19:36:28.986Z,8.32
2022-11-01T19:38:55.533Z,12.23
2022-11-01T19:41:23.776Z,10.23
2022-11-01T19:43:51.006Z,11.82
2022-11-01T19:46:19.175Z,11.25
2022-11-01T19:48:45.983Z,8.80
2022-11-01T19:51:26.299Z,12.23
2022-11-01T19:53:53.627Z,12.90
2022-11-01T19:56:21.196Z,6.57
2022-11-01T19:58:49.112Z,12.70
2022-11-01T20:01:25.357Z,11.57
2022-11-01T20:04:10.697Z,13.07
2022-11-01T20:06:43.093Z,6.28
2022-11-01T20:09:13.313Z,10.73
2022-11-01T20:11:39.812Z,11.70
2022-11-01T20:14:06.338Z,13.95
2022-11-01T20:16:32.845Z,9.82
2022-11-01T20:18:59.197Z,9.40
2022-11-01T20:21:25.664Z,11.38
2022-11-01T20:23:51.948Z,9.07
2022-11-01T20:26:18.386Z,11.65
2022-11-01T20:28:44.685Z,9.10
2022-11-01T20:31:11.102Z,5.20
2022-11-01T20:33:37.662Z,7.05
2022-11-01T20:36:10.734Z,10.23
2022-11-01T20:38:37.715Z,9.82
2022-11-01T20:41:04.324Z,16.88
2022-11-01T20:43:30.865Z,6.75
2022-11-01T20:45:57.335Z,11.45
2022-11-01T20:48:25.022Z,14.65
2022-11-01T20:50:51.554Z,9.70
2022-11-01T20:53:17.851Z,9.02
2022-11-01T20:55:44.365Z,8.23
2022-11-01T20:58:11.156Z,10.07
2022-11-01T21:00:38.679Z,9.15
2022-11-01T21:03:13.108Z,11.40
2022-11-01T21:05:39.599Z,7.68
2022-11-01T21:08:22.640Z,6.95
2022-11-01T21:11:00.853Z,9.18
2022-11-01T21:13:29.689Z,5.85
2022-11-01T21:15:57.252Z,14.52
2022-11-01T21:18:27.219Z,8.90
2022-11-01T21:20:53.736Z,7.88
2022-11-01T21:23:32.173Z,10.15
2022-11-01T21:26:02.355Z,7.63
2022-11-01T21:28:43.346Z,8.70
2022-11-01T21:33:37.476Z,10.43
2022-11-01T21:36:13.885Z,8.38
2022-11-01T21:38:41.045Z,7.28
2022-11-01T21:41:31.545Z,7.35
2022-11-01T21:44:00.299Z,13.85
2022-11-01T21:46:27.913Z,10.07
2022-11-01T21:48:58.184Z,10.55
2022-11-01T21:51:24.774Z,9.47
2022-11-01T21:53:51.081Z,5.68
2022-11-01T21:56:17.409Z,6.10
2022-11-01T21:58:43.699Z,8.18
2022-11-01T22:01:11.161Z,7.53
2022-11-01T22:03:37.986Z,8.63
2022-11-01T22:06:04.338Z,9.68
2022-11-01T22:08:30.657Z,8.80
2022-11-01T22:10:57.024Z,7.25
2022-11-01T22:13:23.356Z,5.45
2022-11-01T22:15:49.644Z,4.47
2022-11-01T22:18:17.974Z,9.38
2022-11-01T22:20:47.338Z,11.50
2022-11-01T22:23:13.688Z,10.35
2022-11-01T22:25:39.959Z,8.07
2022-11-01T22:28:07.010Z,9.18
2022-11-01T22:30:33.361Z,6.78
2022-11-01T22:32:59.696Z,6.97
2022-11-01T22:35:26.184Z,6.38
2022-11-01T22:37:53.230Z,5.22
2022-11-01T22:40:19.527Z,6.57
2022-11-01T22:42:47.795Z,3.75
2022-11-01T22:45:18.565Z,5.95
2022-11-01T22:47:45.979Z,5.38
2022-11-01T22:50:13.722Z,8.25
2022-11-01T22:52:45.069Z,6.00
2022-11-01T22:55:11.443Z,4.25
2022-11-01T22:57:47.785Z,3.55
2022-11-01T23:00:26.652Z,2.85
2022-11-01T23:02:59.084Z,4.03
2022-11-01T23:05:25.774Z,3.38
2022-11-01T23:07:55.527Z,2.97
2022-11-01T23:10:24.635Z,4.82
2022-11-01T23:13:09.622Z,2.38
2022-11-01T23:15:36.549Z,6.07
2022-11-01T23:18:22.213Z,3.72
2022-11-01T23:20:55.983Z,7.55
2022-11-01T23:23:22.415Z,5.30
2022-11-01T23:25:49.010Z,5.57
2022-11-01T23:28:15.356Z,7.13
2022-11-01T23:30:42.731Z,7.15
2022-11-01T23:33:12.990Z,8.10
2022-11-01T23:35:40.112Z,10.98
2022-11-01T23:38:15.101Z,8.02
2022-11-01T23:40:42.885Z,7.38
2022-11-01T23:43:29.067Z,7.32
2022-11-01T23:45:55.700Z,6.80
2022-11-01T23:48:22.459Z,5.47
2022-11-01T23:50:50.238Z,8.02
2022-11-01T23:53:18.786Z,9.10
2022-11-01T23:55:46.909Z,12.93
2022-11-01T23:58:17.230Z,10.25
